createdAt,value
2022-12-12T00:00:38.309Z,-1.20
2022-12-12T00:03:08.378Z,-1.10
2022-12-12T00:05:38.301Z,-1.20
2022-12-12T00:08:08.668Z,-1.20
2022-12-12T00:10:39.358Z,-1.10
2022-12-12T00:13:11.780Z,-1.10
2022-12-12T00:15:41.643Z,-1.20
2022-12-12T00:18:11.496Z,-1.20
2022-12-12T00:20:41.348Z,-1.20
2022-12-12T00:23:11.198Z,-1.10
2022-12-12T00:25:41.026Z,-1.20
2022-12-12T00:28:13.423Z,-1.20
2022-12-12T00:30:43.242Z,-1.20
2022-12-12T00:33:13.064Z,-1.20
2022-12-12T00:35:42.977Z,-1.10
2022-12-12T00:38:12.882Z,-1.10
2022-12-12T00:40:42.693Z,-1.20
2022-12-12T00:43:15.202Z,-1.20
2022-12-12T00:45:45.244Z,-1.20
2022-12-12T00:48:15.048Z,-1.10
2022-12-12T00:50:45.214Z,-1.20
2022-12-12T00:53:16.533Z,-1.20
2022-12-12T00:55:46.518Z,-1.10
2022-12-12T00:58:18.904Z,-1.10
2022-12-12T01:00:48.773Z,-1.10
2022-12-12T01:03:18.631Z,-1.10
2022-12-12T01:05:48.633Z,-1.20
2022-12-12T01:08:18.650Z,-1.10
2022-12-12T01:10:48.599Z,-1.10
2022-12-12T01:13:21.025Z,-1.10
2022-12-12T01:15:51.365Z,-1.10
2022-12-12T01:18:21.959Z,-1.10
2022-12-12T01:20:51.804Z,-1.10
2022-12-12T01:23:21.698Z,-1.10
2022-12-12T01:25:51.714Z,-1.10
2022-12-12T01:28:24.102Z,-1.10
2022-12-12T01:30:53.953Z,-1.10
2022-12-12T01:33:23.876Z,-1.10
2022-12-12T01:35:55.398Z,-1.10
2022-12-12T01:38:25.435Z,-1.00
2022-12-12T01:40:56.127Z,-1.00
2022-12-12T01:43:28.828Z,-1.10
2022-12-12T01:46:42.387Z,-1.10
2022-12-12T01:49:26.470Z,-1.00
2022-12-12T01:52:01.469Z,-1.00
2022-12-12T01:54:37.958Z,-1.00
2022-12-12T01:57:12.529Z,-1.00
2022-12-12T01:59:45.802Z,-0.90
2022-12-12T02:02:15.993Z,-1.00
2022-12-12T02:04:46.567Z,-1.00
2022-12-12T02:07:17.826Z,-1.00
2022-12-12T02:09:50.606Z,-0.90
2022-12-12T02:12:20.582Z,-0.90
2022-12-12T02:14:55.387Z,-0.90
2022-12-12T02:18:03.489Z,-0.90
2022-12-12T02:20:57.007Z,-0.90
2022-12-12T02:24:12.950Z,-0.90
2022-12-12T02:27:43.534Z,-0.90
2022-12-12T02:30:23.950Z,-0.90
2022-12-12T02:33:13.086Z,-0.90
2022-12-12T02:35:59.910Z,-0.80
2022-12-12T02:38:34.259Z,-0.90
2022-12-12T02:41:18.409Z,-0.80
2022-12-12T02:43:59.294Z,-0.80
2022-12-12T02:46:35.805Z,-0.80
2022-12-12T02:49:12.493Z,-0.70
2022-12-12T02:51:43.351Z,-0.80
2022-12-12T02:54:19.301Z,-0.80
2022-12-12T02:56:54.777Z,-0.70
2022-12-12T02:59:30.842Z,-0.70
2022-12-12T03:02:48.665Z,-0.70
2022-12-12T03:05:57.711Z,-0.70
2022-12-12T03:08:51.836Z,-0.70
2022-12-12T03:11:34.291Z,-0.70
2022-12-12T03:14:13.399Z,-0.70
2022-12-12T03:16:50.214Z,-0.60
2022-12-12T03:19:27.818Z,-0.60
2022-12-12T03:22:05.253Z,-0.60
2022-12-12T03:24:43.234Z,-0.60
2022-12-12T03:27:20.565Z,-0.60
2022-12-12T03:32:39.174Z,-0.60
2022-12-12T03:35:16.597Z,-0.60
2022-12-12T03:37:53.878Z,-0.50
2022-12-12T03:40:29.945Z,-0.50
2022-12-12T03:43:06.345Z,-0.50
2022-12-12T03:45:42.720Z,-0.50
2022-12-12T03:48:19.373Z,-0.50
2022-12-12T03:50:55.499Z,-0.50
2022-12-12T03:53:35.907Z,-0.50
2022-12-12T03:56:12.095Z,-0.50
2022-12-12T03:58:50.198Z,-0.50
2022-12-12T04:01:23.319Z,-0.50
2022-12-12T04:03:59.344Z,-0.50
2022-12-12T04:06:35.525Z,-0.50
2022-12-12T04:09:25.891Z,-0.50
2022-12-12T04:12:16.034Z,-0.50
2022-12-12T04:15:17.790Z,-0.50
2022-12-12T04:18:03.287Z,-0.50
2022-12-12T04:21:00.084Z,-0.40
2022-12-12T04:23:38.312Z,-0.40
2022-12-12T04:26:29.370Z,-0.40
2022-12-12T04:29:08.542Z,-0.40
2022-12-12T04:31:43.337Z,-0.40
2022-12-12T04:34:18.694Z,-0.40
2022-12-12T04:36:51.118Z,-0.40
2022-12-12T04:39:23.886Z,-0.40
2022-12-12T04:41:57.724Z,-0.40
2022-12-12T04:44:30.234Z,-0.40
2022-12-12T04:47:04.005Z,-0.40
2022-12-12T04:49:36.486Z,-0.40
2022-12-12T04:52:11.073Z,-0.40
2022-12-12T04:54:47.808Z,-0.40
2022-12-12T04:57:27.325Z,-0.40
2022-12-12T04:59:57.419Z,-0.40
2022-12-12T05:02:34.598Z,-0.40
2022-12-12T05:05:09.975Z,-0.40
2022-12-12T05:07:42.489Z,-0.40
2022-12-12T05:10:17.277Z,-0.40
2022-12-12T05:12:52.950Z,-0.40
2022-12-12T05:15:24.146Z,-0.40
2022-12-12T05:18:00.315Z,-0.30
2022-12-12T05:20:30.227Z,-0.30
2022-12-12T05:23:00.379Z,-0.30
2022-12-12T05:25:30.319Z,-0.30
2022-12-12T05:28:02.949Z,-0.30
2022-12-12T05:30:32.940Z,-0.30
2022-12-12T05:33:02.811Z,-0.30
2022-12-12T05:35:33.981Z,-0.30
2022-12-12T05:38:04.398Z,-0.20
2022-12-12T05:40:34.363Z,-0.20
2022-12-12T05:43:06.943Z,-0.20
2022-12-12T05:45:36.873Z,-0.20
2022-12-12T05:48:07.135Z,-0.20
2022-12-12T05:50:37.035Z,-0.20
2022-12-12T05:53:06.921Z,-0.20
2022-12-12T05:55:37.672Z,-0.20
2022-12-12T05:58:10.269Z,-0.20
2022-12-12T06:00:40.426Z,-0.20
2022-12-12T06:03:10.275Z,-0.20
2022-12-12T06:05:40.171Z,-0.20
2022-12-12T06:08:10.141Z,-0.20
2022-12-12T06:10:40.127Z,-0.20
2022-12-12T06:13:12.591Z,-0.10
2022-12-12T06:15:43.425Z,-0.10
2022-12-12T06:18:13.480Z,-0.20
2022-12-12T06:20:43.365Z,-0.10
2022-12-12T06:23:13.299Z,-0.10
2022-12-12T06:25:43.189Z,-0.10
2022-12-12T06:28:15.586Z,-0.10
2022-12-12T06:30:45.479Z,-0.10
2022-12-12T06:33:15.342Z,-0.10
2022-12-12T06:35:45.206Z,-0.10
2022-12-12T06:38:15.084Z,-0.10
2022-12-12T06:40:45.685Z,-0.10
2022-12-12T06:43:18.120Z,-0.10
2022-12-12T06:45:47.932Z,-0.10
2022-12-12T06:48:17.828Z,-0.10
2022-12-12T06:50:48.723Z,-0.10
2022-12-12T06:53:18.589Z,-0.10
2022-12-12T06:55:48.492Z,-0.10
2022-12-12T06:58:20.970Z,-0.10
2022-12-12T07:00:54.836Z,-0.10
2022-12-12T07:03:24.680Z,-0.10
2022-12-12T07:05:54.510Z,-0.10
2022-12-12T07:08:24.462Z,-0.10
2022-12-12T07:10:54.533Z,-0.10
2022-12-12T07:13:26.967Z,-0.10
2022-12-12T07:15:58.932Z,-0.10
2022-12-12T07:18:28.914Z,-0.10
2022-12-12T07:20:58.746Z,-0.10
2022-12-12T07:23:28.623Z,-0.10
2022-12-12T07:25:58.536Z,0.00
2022-12-12T07:28:31.118Z,0.00
2022-12-12T07:31:01.456Z,-0.10
2022-12-12T07:33:42.683Z,0.00
2022-12-12T07:36:14.963Z,0.00
2022-12-12T07:38:45.540Z,0.00
2022-12-12T07:41:18.714Z,0.00
2022-12-12T07:43:52.477Z,0.00
2022-12-12T07:46:25.302Z,0.00
2022-12-12T07:48:56.255Z,0.00
2022-12-12T07:51:27.758Z,0.00
2022-12-12T07:53:57.748Z,0.10
2022-12-12T07:56:27.700Z,0.00
2022-12-12T07:59:00.223Z,0.00
2022-12-12T08:01:30.976Z,0.10
2022-12-12T08:04:01.089Z,0.00
2022-12-12T08:06:31.034Z,0.00
2022-12-12T08:09:01.036Z,0.00
2022-12-12T08:11:30.991Z,0.00
2022-12-12T08:14:06.957Z,0.00
2022-12-12T08:16:41.220Z,0.00
2022-12-12T08:19:11.162Z,0.00
2022-12-12T08:21:41.131Z,0.00
2022-12-12T08:24:14.412Z,0.10
2022-12-12T08:26:45.558Z,0.00
2022-12-12T08:29:18.367Z,0.00
2022-12-12T08:31:48.386Z,0.00
2022-12-12T08:34:18.326Z,0.00
2022-12-12T08:36:49.227Z,0.00
2022-12-12T08:39:19.625Z,0.00
2022-12-12T08:41:51.202Z,0.00
2022-12-12T08:44:24.497Z,0.00
2022-12-12T08:46:54.482Z,0.00
2022-12-12T08:49:24.636Z,0.00
2022-12-12T08:51:54.723Z,0.00
2022-12-12T08:54:24.625Z,0.00
2022-12-12T08:56:54.618Z,0.00
2022-12-12T08:59:27.177Z,0.00
2022-12-12T09:01:57.295Z,0.00
2022-12-12T09:04:27.394Z,0.00
2022-12-12T09:06:57.725Z,0.00
2022-12-12T09:09:27.683Z,0.00
2022-12-12T09:11:57.614Z,0.00
2022-12-12T09:14:30.117Z,0.00
2022-12-12T09:17:00.331Z,0.00
2022-12-12T09:19:30.396Z,0.00
2022-12-12T09:22:00.370Z,0.00
2022-12-12T09:24:30.465Z,0.00
2022-12-12T09:27:00.438Z,0.00
2022-12-12T09:29:33.279Z,0.00
2022-12-12T09:32:06.594Z,0.00
2022-12-12T09:34:36.650Z,-0.10
2022-12-12T09:37:07.004Z,-0.10
2022-12-12T09:39:36.950Z,-0.10
2022-12-12T09:42:15.181Z,-0.10
2022-12-12T09:44:47.700Z,0.00
2022-12-12T09:47:33.215Z,-0.10
2022-12-12T09:50:08.748Z,-0.20
2022-12-12T09:52:39.667Z,-0.20
2022-12-12T09:55:38.125Z,-0.20
2022-12-12T09:58:20.937Z,-0.20
2022-12-12T10:01:02.795Z,-0.20
2022-12-12T10:03:56.952Z,-0.20
2022-12-12T10:06:37.229Z,-0.20
2022-12-12T10:09:28.696Z,-0.20
2022-12-12T10:12:03.483Z,-0.30
2022-12-12T10:14:42.293Z,-0.30
2022-12-12T10:17:18.776Z,-0.30
2022-12-12T10:19:54.662Z,-0.30
2022-12-12T10:22:35.524Z,-0.30
2022-12-12T10:25:18.607Z,-0.30
2022-12-12T10:27:48.887Z,-0.40
2022-12-12T10:30:22.706Z,-0.40
2022-12-12T10:33:15.021Z,-0.40
2022-12-12T10:35:52.339Z,-0.40
2022-12-12T10:38:38.140Z,-0.30
2022-12-12T10:41:15.216Z,-0.20
2022-12-12T10:43:55.551Z,-0.30
2022-12-12T10:46:31.247Z,-0.30
2022-12-12T10:49:03.910Z,-0.30
2022-12-12T10:51:34.033Z,-0.30
2022-12-12T10:54:04.865Z,-0.30
2022-12-12T10:56:34.765Z,-0.30
2022-12-12T10:59:04.583Z,-0.30
2022-12-12T11:02:09.012Z,-0.30
2022-12-12T11:04:34.623Z,-0.20
2022-12-12T11:07:04.887Z,-0.10
2022-12-12T11:09:34.760Z,-0.10
2022-12-12T11:12:07.785Z,-0.20
2022-12-12T11:14:40.717Z,-0.20
2022-12-12T11:17:24.587Z,-0.20
2022-12-12T11:20:00.201Z,-0.20
2022-12-12T11:22:33.942Z,-0.30
2022-12-12T11:25:04.137Z,-0.30
2022-12-12T11:27:37.056Z,-0.30
2022-12-12T11:30:10.870Z,-0.30
2022-12-12T11:32:44.635Z,-0.20
2022-12-12T11:35:29.576Z,-0.10
2022-12-12T11:38:04.292Z,-0.10
2022-12-12T11:40:36.178Z,-0.10
2022-12-12T11:43:20.810Z,-0.20
2022-12-12T11:46:08.594Z,-0.20
2022-12-12T11:48:59.337Z,-0.20
2022-12-12T11:51:41.009Z,-0.20
2022-12-12T11:54:17.145Z,-0.20
2022-12-12T11:56:53.680Z,-0.20
2022-12-12T12:00:06.093Z,-0.20
2022-12-12T12:03:15.489Z,-0.20
2022-12-12T12:06:21.802Z,-0.10
2022-12-12T12:09:22.172Z,-0.10
2022-12-12T12:12:02.765Z,-0.30
2022-12-12T12:15:00.140Z,-0.50
2022-12-12T12:17:49.890Z,-0.50
2022-12-12T12:20:30.824Z,-0.60
2022-12-12T12:23:08.985Z,-0.60
2022-12-12T12:25:53.537Z,-0.60
2022-12-12T12:28:49.582Z,-0.60
2022-12-12T12:31:28.846Z,-0.60
2022-12-12T12:34:12.960Z,-0.50
2022-12-12T12:37:00.721Z,-0.50
2022-12-12T12:39:58.622Z,-0.70
2022-12-12T12:42:50.871Z,-0.60
2022-12-12T12:45:29.319Z,-0.70
2022-12-12T12:48:10.425Z,-0.70
2022-12-12T12:50:47.000Z,-0.70
2022-12-12T12:53:32.342Z,-0.70
2022-12-12T12:56:06.870Z,-0.70
2022-12-12T12:58:49.609Z,-0.70
2022-12-12T13:01:25.120Z,-0.70
2022-12-12T13:04:05.289Z,-0.70
2022-12-12T13:06:45.015Z,-0.70
2022-12-12T13:09:36.980Z,-0.80
2022-12-12T13:12:16.031Z,-0.90
2022-12-12T13:14:54.558Z,-0.80
2022-12-12T13:17:29.643Z,-0.80
2022-12-12T13:20:00.912Z,-0.80
2022-12-12T13:22:53.353Z,-0.70
2022-12-12T13:25:37.590Z,-0.70
2022-12-12T13:28:14.210Z,-0.70
2022-12-12T13:31:13.744Z,-0.80
2022-12-12T13:33:46.913Z,-0.80
2022-12-12T13:36:29.291Z,-0.80
2022-12-12T13:39:03.610Z,-0.90
2022-12-12T13:41:58.844Z,-0.80
2022-12-12T13:44:44.482Z,-0.90
2022-12-12T13:48:04.656Z,-0.90
2022-12-12T13:50:34.837Z,-0.90
2022-12-12T13:53:21.788Z,-0.80
2022-12-12T13:55:51.719Z,-0.90
2022-12-12T13:58:35.977Z,-0.90
2022-12-12T14:01:39.270Z,-1.00
2022-12-12T14:04:28.311Z,-0.90
2022-12-12T14:07:04.081Z,-1.00
2022-12-12T14:09:47.698Z,-0.90
2022-12-12T14:12:27.501Z,-1.00
2022-12-12T14:15:04.027Z,-1.00
2022-12-12T14:17:42.149Z,-1.00
2022-12-12T14:20:33.188Z,-1.00
2022-12-12T14:23:32.134Z,-0.90
2022-12-12T14:26:02.549Z,-0.90
2022-12-12T14:28:34.456Z,-1.00
2022-12-12T14:31:17.241Z,-1.00
2022-12-12T14:34:20.650Z,-1.00
2022-12-12T14:37:33.101Z,-1.00
2022-12-12T14:40:13.867Z,-1.10
2022-12-12T14:43:19.080Z,-1.10
2022-12-12T14:45:59.299Z,-1.10
2022-12-12T14:48:31.911Z,-1.00
2022-12-12T14:51:10.326Z,-1.00
2022-12-12T14:53:50.630Z,-1.00
2022-12-12T14:56:25.038Z,-1.00
2022-12-12T14:59:02.905Z,-1.00
2022-12-12T15:01:37.178Z,-1.00
2022-12-12T15:04:13.025Z,-1.00
2022-12-12T15:06:43.745Z,-1.00
2022-12-12T15:09:22.579Z,-1.00
2022-12-12T15:11:53.741Z,-1.00
2022-12-12T15:14:28.587Z,-1.00
2022-12-12T15:17:04.764Z,-1.10
2022-12-12T15:19:38.899Z,-1.10
2022-12-12T15:22:14.762Z,-1.10
2022-12-12T15:24:47.279Z,-1.10
2022-12-12T15:27:24.365Z,-1.10
2022-12-12T15:29:54.710Z,-1.10
2022-12-12T15:32:27.016Z,-1.20
2022-12-12T15:35:06.844Z,-1.20
2022-12-12T15:37:38.864Z,-1.10
2022-12-12T15:40:29.687Z,-1.10
2022-12-12T15:43:03.002Z,-1.20
2022-12-12T15:45:36.934Z,-1.10
2022-12-12T15:48:09.198Z,-1.20
2022-12-12T15:50:57.103Z,-1.10
2022-12-12T15:53:29.464Z,-1.20
2022-12-12T15:56:06.519Z,-1.20
2022-12-12T15:58:40.443Z,-1.20
2022-12-12T16:01:21.012Z,-1.20
2022-12-12T16:04:01.208Z,-1.20
2022-12-12T16:06:33.367Z,-1.20
2022-12-12T16:09:09.474Z,-1.10
2022-12-12T16:11:49.717Z,-1.10
2022-12-12T16:14:39.569Z,-1.20
2022-12-12T16:17:15.753Z,-1.10
2022-12-12T16:19:47.810Z,-1.20
2022-12-12T16:22:31.227Z,-1.10
2022-12-12T16:25:18.432Z,-1.10
2022-12-12T16:27:55.377Z,-1.10
2022-12-12T16:30:25.349Z,-1.10
2022-12-12T16:32:55.333Z,-1.20
2022-12-12T16:35:27.230Z,-1.10
2022-12-12T16:37:57.095Z,-1.20
2022-12-12T16:40:27.028Z,-1.20
2022-12-12T16:43:11.008Z,-1.20
2022-12-12T16:45:41.535Z,-1.20
2022-12-12T16:48:17.472Z,-1.20
2022-12-12T16:50:48.135Z,-1.20
2022-12-12T16:53:18.642Z,-1.20
2022-12-12T16:55:51.401Z,-1.20
2022-12-12T16:58:23.955Z,-1.20
2022-12-12T17:00:55.858Z,-1.20
2022-12-12T17:03:26.606Z,-1.20
2022-12-12T17:05:56.572Z,-1.20
2022-12-12T17:08:26.440Z,-1.20
2022-12-12T17:11:10.287Z,-1.20
2022-12-12T17:13:50.990Z,-1.20
2022-12-12T17:16:27.337Z,-1.20
2022-12-12T17:18:58.490Z,-1.20
2022-12-12T17:21:28.616Z,-1.20
2022-12-12T17:23:58.561Z,-1.20
2022-12-12T17:26:28.470Z,-1.20
2022-12-12T17:29:01.052Z,-1.20
2022-12-12T17:31:31.110Z,-1.20
2022-12-12T17:34:01.050Z,-1.20
2022-12-12T17:36:31.145Z,-1.20
2022-12-12T17:39:01.167Z,-1.20
2022-12-12T17:41:31.110Z,-1.20
2022-12-12T17:44:03.539Z,-1.20
2022-12-12T17:46:33.407Z,-1.20
2022-12-12T17:49:03.646Z,-1.20
2022-12-12T17:51:33.643Z,-1.10
2022-12-12T17:54:03.615Z,-1.10
2022-12-12T17:56:33.844Z,-1.10
2022-12-12T17:59:07.144Z,-1.10
2022-12-12T18:01:37.608Z,-1.20
2022-12-12T18:04:09.088Z,-1.20
2022-12-12T18:06:39.828Z,-1.20
2022-12-12T18:09:09.712Z,-1.20
2022-12-12T18:11:41.773Z,-1.20
2022-12-12T18:14:19.161Z,-1.20
2022-12-12T18:16:53.037Z,-1.20
2022-12-12T18:19:24.498Z,-1.20
2022-12-12T18:22:02.851Z,-1.20
2022-12-12T18:24:33.170Z,-1.20
2022-12-12T18:27:04.530Z,-1.20
2022-12-12T18:29:37.174Z,-1.20
2022-12-12T18:32:08.067Z,-1.30
2022-12-12T18:34:38.097Z,-1.30
2022-12-12T18:37:07.984Z,-1.30
2022-12-12T18:39:37.908Z,-1.30
2022-12-12T18:42:07.971Z,-1.30
2022-12-12T18:44:40.410Z,-1.40
2022-12-12T18:47:10.322Z,-1.40
2022-12-12T18:49:40.489Z,-1.40
2022-12-12T18:52:10.419Z,-1.40
2022-12-12T18:54:40.270Z,-1.50
2022-12-12T18:57:10.678Z,-1.50
2022-12-12T18:59:43.271Z,-1.50
2022-12-12T19:02:15.361Z,-1.50
2022-12-12T19:04:47.173Z,-1.50
2022-12-12T19:07:18.471Z,-1.60
2022-12-12T19:09:48.664Z,-1.60
2022-12-12T19:12:18.505Z,-1.60
2022-12-12T19:17:41.314Z,-1.60
2022-12-12T19:20:13.001Z,-1.60
2022-12-12T19:22:45.882Z,-1.70
2022-12-12T19:25:17.333Z,-1.70
2022-12-12T19:27:48.129Z,-1.70
2022-12-12T19:30:20.979Z,-1.70
2022-12-12T19:32:51.306Z,-1.80
2022-12-12T19:35:21.518Z,-1.80
2022-12-12T19:37:51.863Z,-1.80
2022-12-12T19:40:22.047Z,-1.80
2022-12-12T19:42:51.997Z,-1.90
2022-12-12T19:45:24.809Z,-1.80
2022-12-12T19:47:54.756Z,-1.90
2022-12-12T19:50:24.663Z,-1.90
2022-12-12T19:52:54.538Z,-1.90
2022-12-12T19:55:24.526Z,-1.90
2022-12-12T19:57:54.415Z,-1.90
2022-12-12T20:00:26.966Z,-2.00
2022-12-12T20:02:56.990Z,-1.90
2022-12-12T20:05:26.955Z,-1.90
2022-12-12T20:07:56.963Z,-2.00
2022-12-12T20:10:26.898Z,-2.00
2022-12-12T20:12:58.794Z,-2.00
2022-12-12T20:15:31.508Z,-2.00
2022-12-12T20:18:02.879Z,-2.10
2022-12-12T20:20:32.769Z,-2.10
2022-12-12T20:23:02.622Z,-2.00
2022-12-12T20:25:32.494Z,-2.00
2022-12-12T20:28:02.346Z,-2.00
2022-12-12T20:30:34.846Z,-2.10
2022-12-12T20:33:04.713Z,-2.10
2022-12-12T20:35:37.268Z,-2.10
2022-12-12T20:38:07.198Z,-2.10
2022-12-12T20:40:46.005Z,-2.10
2022-12-12T20:43:17.146Z,-2.20
2022-12-12T20:45:52.260Z,-2.10
2022-12-12T20:48:22.295Z,-2.20
2022-12-12T20:50:52.153Z,-2.20
2022-12-12T20:53:21.990Z,-2.20
2022-12-12T20:55:51.826Z,-2.20
2022-12-12T20:58:21.655Z,-2.20
2022-12-12T21:00:56.591Z,-2.20
2022-12-12T21:03:26.507Z,-2.20
2022-12-12T21:05:56.670Z,-2.20
2022-12-12T21:08:26.664Z,-2.20
2022-12-12T21:10:56.607Z,-2.30
2022-12-12T21:13:26.422Z,-2.30
2022-12-12T21:15:58.894Z,-2.20
2022-12-12T21:18:28.822Z,-2.10
2022-12-12T21:20:58.684Z,-2.10
2022-12-12T21:23:28.603Z,-2.00
2022-12-12T21:25:58.458Z,-2.00
2022-12-12T21:28:28.303Z,-1.90
2022-12-12T21:31:01.054Z,-1.90
2022-12-12T21:33:31.124Z,-1.80
2022-12-12T21:36:06.854Z,-1.80
2022-12-12T21:38:37.123Z,-1.80
2022-12-12T21:41:07.891Z,-1.80
2022-12-12T21:43:38.071Z,-1.80
2022-12-12T21:46:14.651Z,-1.70
2022-12-12T21:48:44.608Z,-1.70
2022-12-12T21:51:18.195Z,-1.70
2022-12-12T21:53:48.063Z,-1.60
2022-12-12T21:56:20.106Z,-1.60
2022-12-12T21:58:49.996Z,-1.60
2022-12-12T22:01:24.169Z,-1.60
2022-12-12T22:03:54.132Z,-1.60
2022-12-12T22:06:27.307Z,-1.50
2022-12-12T22:08:58.436Z,-1.50
2022-12-12T22:11:41.304Z,-1.50
2022-12-12T22:14:21.167Z,-1.40
2022-12-12T22:16:53.602Z,-1.40
2022-12-12T22:19:23.441Z,-1.40
2022-12-12T22:21:53.290Z,-1.40
2022-12-12T22:24:23.286Z,-1.40
2022-12-12T22:26:53.417Z,-1.40
2022-12-12T22:29:23.786Z,-1.40
2022-12-12T22:31:56.190Z,-1.40
2022-12-12T22:34:27.535Z,-1.30
2022-12-12T22:36:57.355Z,-1.30
2022-12-12T22:39:29.700Z,-1.30
2022-12-12T22:41:59.942Z,-1.30
2022-12-12T22:44:29.841Z,-1.30
2022-12-12T22:47:02.377Z,-1.30
2022-12-12T22:49:32.351Z,-1.30
2022-12-12T22:52:02.217Z,-1.30
2022-12-12T22:54:32.102Z,-1.30
2022-12-12T22:57:01.946Z,-1.20
2022-12-12T22:59:31.852Z,-1.20
2022-12-12T23:02:04.278Z,-1.20
2022-12-12T23:04:34.232Z,-1.20
2022-12-12T23:07:04.169Z,-1.20
2022-12-12T23:09:34.796Z,-1.20
2022-12-12T23:12:04.658Z,-1.20
2022-12-12T23:14:34.655Z,-1.20
2022-12-12T23:17:07.154Z,-1.20
2022-12-12T23:19:37.229Z,-1.20
2022-12-12T23:22:07.457Z,-1.20
2022-12-12T23:24:37.471Z,-1.20
2022-12-12T23:27:07.498Z,-1.20
2022-12-12T23:29:37.554Z,-1.10
2022-12-12T23:32:10.264Z,-1.20
2022-12-12T23:34:40.505Z,-1.10
2022-12-12T23:37:10.409Z,-1.20
2022-12-12T23:39:40.324Z,-1.10
2022-12-12T23:42:10.179Z,-1.20
2022-12-12T23:44:40.071Z,-1.20
2022-12-12T23:47:12.518Z,-1.20
2022-12-12T23:49:42.482Z,-1.10
2022-12-12T23:52:12.371Z,-1.10
2022-12-12T23:54:42.224Z,-1.10
2022-12-12T23:57:12.302Z,-1.10
2022-12-12T23:59:42.184Z,-1.10
